Flight Track Log - Related Links

Times and Time Zones

All times are in EDT time to prevent confusion due to time zone crossing. See the DAL268 flight status page for this flight to view local times or setup timezone preferences in your user account.

Time Position Orientation Groundspeed Altitude Reporting Facility
EDT Latitude Longitude Course Direction KTS MPH feet Rate Location/Type
Wed 02:23:46 PM 37.6130 -122.3820 North 14 16  Level FlightAware ADS-B
Wed 02:27:47 PM 37.6120 -122.3830 218° Southwest 28 32 12 Level FlightAware ADS-B
Wed 02:28:05 PM 37.6110 -122.3830 180° South 25 29 14 Level FlightAware ADS-B
Wed 02:28:29 PM 37.6100 -122.3840 218° Southwest 26 30 15 Level FlightAware ADS-B
Wed 02:29:00 PM 37.6090 -122.3840 180° South 28 32 15 Level FlightAware ADS-B
Wed 02:29:43 PM 37.6070 -122.3840 180° South 22 25 15 Level FlightAware ADS-B
Wed 02:32:00 PM 37.8219 -122.1614 38° Northeast  Level FlightAware Approximate
Wed 02:33:00 PM 37.9164 -122.0670 38° Northeast  Level FlightAware Approximate
Wed 02:34:00 PM 38.0015 -121.9675 35° Northeast  Level FlightAware Approximate
Wed 02:35:00 PM 38.1006 -121.8808 35° Northeast  Level FlightAware Approximate
Wed 02:36:00 PM 38.1960 -121.7874 38° Northeast  Level FlightAware Approximate
Wed 02:38:00 PM 37.7810 -122.2024 38° Northeast  Level FlightAware Approximate
Wed 02:39:00 PM 37.8755 -122.1079 38° Northeast  Level FlightAware Approximate
Wed 02:40:00 PM 37.9700 -122.0134 38° Northeast  Level FlightAware Approximate
Wed 02:41:00 PM 38.0577 -121.9184 35° Northeast  Level FlightAware Approximate
Wed 02:42:00 PM 38.1550 -121.8284 38° Northeast  Level FlightAware Approximate
Wed 02:43:00 PM 38.2496 -121.7337 38° Northeast  Level FlightAware Approximate
Wed 02:44:00 PM 38.3443 -121.6391 38° Northeast  Level FlightAware Approximate
Wed 02:46:43 PM 37.6070 -122.3810 22° Northeast 2 2  Level FlightAware ADS-B
Wed 02:48:09 PM 37.6120 -122.3780 25° Northeast 100 115 162 Level FlightAware ADS-B
Wed 02:48:34 PM 37.6268 -122.3680 28° Northeast 163 188 300 1,125 Climbing FlightAware ADS-B
Wed 02:48:41 PM 37.6310 -122.3650 29° Northeast 161 185 600 2,182 Climbing FlightAware ADS-B
Wed 02:48:45 PM 37.6335 -122.3620 44° Northeast 163 188 700 2,000 Climbing FlightAware ADS-B
Wed 02:48:56 PM 37.6400 -122.3550 40° Northeast 172 198 1,100 1,846 Climbing FlightAware ADS-B
Wed 02:49:11 PM 37.6486 -122.3430 48° Northeast 187 215 1,500 1,565 Climbing FlightAware ADS-B
Wed 02:49:19 PM 37.6536 -122.3370 44° Northeast 199 229 1,700 1,600 Climbing FlightAware ADS-B
Wed 02:49:26 PM 37.6583 -122.3320 40° Northeast 204 235 1,900 1,385 Climbing FlightAware ADS-B
Wed 02:49:32 PM 37.6632 -122.3270 39° Northeast 212 244 2,000 1,412 Climbing FlightAware ADS-B
Wed 02:49:43 PM 37.6725 -122.3190 34° Northeast 224 258 2,300 1,714 Climbing FlightAware ADS-B
Wed 02:50:00 PM 37.6867 -122.3050 38° Northeast 239 275 2,800 2,000 Climbing FlightAware ADS-B
Wed 02:50:16 PM 37.7007 -122.2900 40° Northeast 253 291 3,400 2,250 Climbing FlightAware ADS-B
Wed 02:50:32 PM 37.7160 -122.2750 38° Northeast 261 300 4,000 2,372 Climbing FlightAware ADS-B
Wed 02:50:59 PM 37.7421 -122.2470 40° Northeast 265 305 5,100 2,553 Climbing FlightAware ADS-B
Wed 02:51:19 PM 37.7631 -122.2270 37° Northeast 286 329 6,000 2,743 Climbing FlightAware ADS-B
Wed 02:51:34 PM 37.7788 -122.2110 39° Northeast 289 333 6,700 2,471 Climbing FlightAware ADS-B
Wed 02:51:53 PM 37.7984 -122.1920 37° Northeast 298 343 7,400 2,294 Climbing FlightAware ADS-B
Wed 02:52:08 PM 37.8154 -122.1760 37° Northeast 306 352 8,000 2,400 Climbing FlightAware ADS-B
Wed 02:52:23 PM 37.8327 -122.1590 38° Northeast 309 356 8,600 2,400 Climbing FlightAware ADS-B
Wed 02:52:38 PM 37.8497 -122.1420 38° Northeast 311 358 9,200 2,348 Climbing FlightAware ADS-B
Wed 02:52:46 PM 37.8579 -122.1340 38° Northeast 313 360 9,500 2,471 Climbing FlightAware ADS-B
Wed 02:52:55 PM 37.8686 -122.1220 42° Northeast 316 364 9,900 2,400 Climbing FlightAware ADS-B
Wed 02:53:21 PM 37.8983 -122.0920 39° Northeast 323 372 10,900 1,684 Climbing FlightAware ADS-B
Wed 02:53:52 PM 37.9364 -122.0560 37° Northeast 348 400 11,500 1,258 Climbing FlightAware ADS-B
Wed 02:54:23 PM 37.9778 -122.0170 37° Northeast 373 429 12,200 1,500 Climbing FlightAware ADS-B
Wed 02:54:56 PM 38.0244 -121.9700 38° Northeast 390 449 13,100 1,604 Climbing FlightAware ADS-B
Wed 02:56:04 PM 38.1240 -121.8720 38° Northeast 416 479 14,900 1,582 Climbing FlightAware ADS-B
Wed 02:56:46 PM 38.1890 -121.8050 39° Northeast 429 494 16,000 1,650 Climbing FlightAware ADS-B
Wed 02:57:24 PM 38.2480 -121.7460 38° Northeast 436 502 17,100 1,571 Climbing FlightAware ADS-B
Wed 02:58:10 PM 38.3230 -121.6710 38° Northeast 449 517 18,200 1,605 Climbing FlightAware ADS-B
Wed 02:58:50 PM 38.3890 -121.6050 38° Northeast 452 520 19,400 1,500 Climbing FlightAware ADS-B
Wed 02:59:34 PM 38.4580 -121.5270 42° Northeast 469 540 20,300 1,314 Climbing FlightAware ADS-B
Wed 03:03:24 PM 38.7660 -120.9960 53° Northeast 502 578 25,400 1,292 Climbing FlightAware ADS-B
Wed 03:04:08 PM 38.8280 -120.8890 53° Northeast 508 585 26,200 1,133 Climbing FlightAware ADS-B
Wed 03:04:54 PM 38.8910 -120.7800 53° Northeast 514 592 27,100 1,125 Climbing FlightAware ADS-B
Wed 03:05:28 PM 38.9410 -120.6940 53° Northeast 519 597 27,700 975 Climbing FlightAware ADS-B
Wed 03:06:14 PM 39.0080 -120.5780 53° Northeast 524 603 28,400 1,174 Climbing FlightAware ADS-B
Wed 03:07:00 PM 39.0710 -120.4680 54° Northeast 520 598 29,500 1,371 Climbing FlightAware ADS-B
Wed 03:07:24 PM 39.1070 -120.4060 53° Northeast 518 596 30,000 1,343 Climbing FlightAware ADS-B
Wed 03:08:07 PM 39.1690 -120.2980 53° Northeast 517 595 31,000 1,395 Climbing FlightAware ADS-B
Wed 03:08:50 PM 39.2280 -120.1930 54° Northeast 513 590 32,000 1,259 Climbing FlightAware ADS-B
Wed 03:09:28 PM 39.2820 -120.0990 53° Northeast 512 589 32,700 769 Climbing FlightAware ADS-B
Wed 03:10:08 PM 39.3390 -119.9980 54° Northeast 513 590 33,000 545 Climbing FlightAware ADS-B
Wed 03:10:56 PM 39.4050 -119.8800 54° Northeast 512 589 33,500 706 Climbing FlightAware ADS-B
Wed 03:11:33 PM 39.4560 -119.7910 53° Northeast 511 588 34,000 1,047 Climbing FlightAware ADS-B
Wed 03:12:22 PM 39.5240 -119.6690 54° Northeast 505 581 35,000 667 Climbing FlightAware ADS-B
Wed 03:13:03 PM 39.5800 -119.5690 54° Northeast 503 579 35,000  Level FlightAware ADS-B
Wed 03:13:46 PM 39.6390 -119.4640 54° Northeast 501 577 35,000  Level FlightAware ADS-B
Wed 03:14:28 PM 39.6960 -119.3610 54° Northeast 505 581 35,000  Level FlightAware ADS-B
Wed 03:17:08 PM 39.8990 -118.9920 54° Northeast 520 598 35,000  Level FlightAware ADS-B
Wed 03:17:54 PM 39.9800 -118.8440 54° Northeast 518 596 35,000  Level FlightAware ADS-B
Wed 03:18:36 PM 40.0390 -118.7360 54° Northeast 521 600 35,000  Level FlightAware ADS-B
Wed 03:19:12 PM 40.0890 -118.6440 55° Northeast 521 600 35,000  Level FlightAware ADS-B
Wed 03:19:54 PM 40.1380 -118.5280 61° Northeast 524 603 35,000  Level FlightAware ADS-B
Wed 03:20:36 PM 40.1730 -118.4060 69° East 523 602 35,000  Level FlightAware ADS-B
Wed 03:21:06 PM 40.1990 -118.3140 70° East 524 603 35,000  Level FlightAware ADS-B
Wed 03:21:52 PM 40.2350 -118.1780 71° East 523 602 35,000  Level FlightAware ADS-B
Wed 03:22:30 PM 40.2650 -118.0660 71° East 523 602 35,000  Level FlightAware ADS-B
Wed 03:23:14 PM 40.2950 -117.9590 70° East 523 602 35,000  Level FlightAware ADS-B
Wed 03:24:12 PM 40.3360 -117.8120 70° East 523 602 35,000  Level FlightAware ADS-B
Wed 03:24:46 PM 40.3600 -117.7260 70° East 523 602 35,000  Level FlightAware ADS-B
Wed 03:25:45 PM 40.4010 -117.5760 70° East 523 602 35,000  Level FlightAware ADS-B
Wed 03:26:31 PM 40.4330 -117.4590 70° East 523 602 35,000  Level FlightAware ADS-B
Wed 03:27:09 PM 40.4600 -117.3630 70° East 523 602 35,000  Level FlightAware ADS-B
Wed 03:27:46 PM 40.4860 -117.2690 70° East 523 602 35,000  Level FlightAware ADS-B
Wed 03:28:45 PM 40.5280 -117.1190 70° East 523 602 35,000  Level FlightAware ADS-B
Wed 03:29:22 PM 40.5540 -117.0240 70° East 523 602 35,000  Level FlightAware ADS-B
Wed 03:30:35 PM 40.6050 -116.8390 70° East 523 602 35,000  Level FlightAware ADS-B
Wed 03:31:11 PM 40.6300 -116.7470 70° East 523 602 35,000  Level FlightAware ADS-B
Wed 03:32:00 PM 40.6650 -116.6220 70° East 523 602 35,000  Level FlightAware ADS-B
Wed 03:32:36 PM 40.6900 -116.5300 70° East 523 602 35,000  Level FlightAware ADS-B
Wed 03:33:25 PM 40.7874 -116.1130 73° East 520 598 35,000  Level FlightAware ADS-B
Wed 03:33:56 PM 40.8118 -116.0210 71° East 522 601 35,000  Level FlightAware ADS-B
Wed 03:34:27 PM 40.8361 -115.9290 71° East 521 600 35,000  Level FlightAware ADS-B
Wed 03:34:57 PM 40.8599 -115.8380 71° East 520 598 35,000  Level FlightAware ADS-B
Wed 03:35:57 PM 40.9069 -115.6580 71° East 520 598 35,000  Level FlightAware ADS-B
Wed 03:36:44 PM 40.9434 -115.5180 71° East 518 596 35,000  Level FlightAware ADS-B
Wed 03:37:34 PM 40.9823 -115.3670 71° East 519 597 35,000  Level FlightAware ADS-B
Wed 03:38:08 PM 41.0082 -115.2670 71° East 519 597 35,000  Level FlightAware ADS-B
Wed 03:38:38 PM 41.0316 -115.1750 71° East 518 596 35,000  Level FlightAware ADS-B
Wed 03:39:09 PM 41.0548 -115.0840 71° East 518 596 35,000  Level FlightAware ADS-B
Wed 03:39:39 PM 41.0779 -114.9930 71° East 517 595 35,000  Level FlightAware ADS-B
Wed 03:40:10 PM 41.1010 -114.9020 71° East 518 596 35,000  Level FlightAware ADS-B
Wed 03:40:40 PM 41.1241 -114.8100 72° East 519 597 35,000  Level FlightAware ADS-B
Wed 03:41:26 PM 41.1589 -114.6710 72° East 518 596 35,000  Level FlightAware ADS-B
Wed 03:41:57 PM 41.1817 -114.5800 72° East 518 596 35,000  Level FlightAware ADS-B
Wed 03:42:27 PM 41.2045 -114.4880 72° East 518 596 35,000  Level FlightAware ADS-B
Wed 03:42:59 PM 41.2282 -114.3920 72° East 517 595 35,000  Level FlightAware ADS-B
Wed 03:43:31 PM 41.2520 -114.2960 72° East 516 594 35,000  Level FlightAware ADS-B
Wed 03:44:03 PM 41.2760 -114.1980 72° East 516 594 35,000  Level FlightAware ADS-B
Wed 03:44:37 PM 41.3009 -114.0960 72° East 516 594 35,000  Level FlightAware ADS-B
Wed 03:45:08 PM 41.3232 -114.0050 72° East 516 594 35,000  Level FlightAware ADS-B
Wed 03:45:38 PM 41.3451 -113.9140 72° East 515 593 35,000  Level FlightAware ADS-B
Wed 03:45:56 PM 41.3570 -113.8600 74° East 515 593 35,000  Level FlightAware ADS-B
Wed 03:46:19 PM 41.3692 -113.7890 77° East 515 593 35,000  Level FlightAware ADS-B
Wed 03:46:49 PM 41.3824 -113.6930 80° East 516 594 35,000  Level FlightAware ADS-B
Wed 03:47:20 PM 41.3948 -113.5960 80° East 516 594 35,000  Level FlightAware ADS-B
Wed 03:47:51 PM 41.4071 -113.4990 80° East 516 594 35,000  Level FlightAware ADS-B
Wed 03:48:22 PM 41.4190 -113.4040 80° East 516 594 35,000  Level FlightAware ADS-B
Wed 03:48:53 PM 41.4311 -113.3080 80° East 515 593 35,000  Level FlightAware ADS-B
Wed 03:49:24 PM 41.4430 -113.2120 81° East 515 593 35,000  Level FlightAware ADS-B
Wed 03:49:54 PM 41.4549 -113.1160 81° East 515 593 35,000  Level FlightAware ADS-B
Wed 03:50:39 PM 41.4720 -112.9770 81° East 514 592 35,000  Level FlightAware ADS-B
Wed 03:51:09 PM 41.4834 -112.8840 81° East 511 588 35,000  Level FlightAware ADS-B
Wed 03:52:02 PM 41.5031 -112.7210 81° East 505 581 35,000  Level FlightAware ADS-B
Wed 03:52:41 PM 41.5174 -112.6010 81° East 503 579 35,000  Level FlightAware ADS-B
Wed 03:53:15 PM 41.5297 -112.4980 81° East 502 578 35,000  Level FlightAware ADS-B
Wed 03:53:52 PM 41.5422 -112.3840 82° East 502 578 35,000  Level FlightAware ADS-B
Wed 03:54:25 PM 41.5526 -112.2840 82° East 504 580 35,000  Level FlightAware ADS-B
Wed 03:54:57 PM 41.5628 -112.1840 82° East 502 578 35,000  Level FlightAware ADS-B
Wed 03:55:29 PM 41.5727 -112.0880 82° East 502 578 35,000  Level FlightAware ADS-B
Wed 03:56:03 PM 41.5835 -111.9830 82° East 501 577 35,000  Level FlightAware ADS-B
Wed 03:56:34 PM 41.5934 -111.8870 82° East 501 577 35,000  Level FlightAware ADS-B
Wed 03:57:06 PM 41.6032 -111.7910 82° East 501 577 35,000  Level FlightAware ADS-B
Wed 03:57:36 PM 41.6125 -111.6980 82° East 500 575 35,000  Level FlightAware ADS-B
Wed 03:58:08 PM 41.6220 -111.6030 82° East 500 575 35,000  Level FlightAware ADS-B
Wed 03:58:38 PM 41.6311 -111.5100 83° East 500 575 35,000  Level FlightAware ADS-B
Wed 03:59:08 PM 41.6402 -111.4170 83° East 500 575 35,000  Level FlightAware ADS-B
Wed 03:59:38 PM 41.6491 -111.3250 83° East 501 577 35,000  Level FlightAware ADS-B
Wed 03:59:57 PM 41.6500 -111.3092 83° East 497 572 35,000  Level Salt Lake Center
Wed 04:00:09 PM 41.6581 -111.2320 83° East 502 578 35,000  Level FlightAware ADS-B
Wed 04:00:51 PM 41.6704 -111.1020 83° East 502 578 35,000  Level FlightAware ADS-B
Wed 04:00:59 PM 41.6717 -111.0875 82° East 500 575 35,000  Level Salt Lake Center
Wed 04:01:24 PM 41.6800 -111.0000 83° East 501 577 35,000  Level FlightAware ADS-B
Wed 04:01:58 PM 41.6896 -110.8970 83° East 501 577 35,000  Level FlightAware ADS-B
Wed 04:02:01 PM 41.6872 -110.9206 83° East 500 575 35,000  Level Salt Lake Center
Wed 04:02:30 PM 41.6986 -110.8000 83° East 500 575 35,000  Level FlightAware ADS-B
Wed 04:03:03 PM 41.7061 -110.7161 83° East 498 573 35,000  Level Salt Lake Center
Wed 04:04:05 PM 41.7222 -110.5394 83° East 499 574 35,000  Level Salt Lake Center
Wed 04:05:07 PM 41.7397 -110.3322 83° East 501 577 35,000  Level Salt Lake Center
Wed 04:06:00 PM 41.7509 -110.1771 83° East  Level FlightAware Approximate
Wed 04:06:09 PM 41.7547 -110.1558 83° East 500 575 35,000  Level Salt Lake Center
Wed 04:07:11 PM 41.7731 -109.9497 83° East 500 575 35,000  Level Salt Lake Center
Wed 04:08:13 PM 41.7889 -109.7722 83° East 500 575 35,000  Level Salt Lake Center
Wed 04:09:15 PM 41.8056 -109.5653 84° East 499 574 35,000  Level Salt Lake Center
Wed 04:10:17 PM 41.8203 -109.3878 84° East 499 574 35,000  Level Salt Lake Center
Wed 04:11:19 PM 41.8344 -109.2081 84° East 501 577 35,000  Level Salt Lake Center
Wed 04:12:21 PM 41.8500 -109.0000 84° East 500 575 35,000  Level Salt Lake Center
Wed 04:13:23 PM 41.8633 -108.8208 84° East 501 577 35,000  Level Salt Lake Center
Wed 04:14:25 PM 41.8797 -108.6133 84° East 500 575 35,000  Level Salt Lake Center
Wed 04:15:27 PM 41.8919 -108.4339 85° East 503 579 35,000  Level Salt Lake Center
Wed 04:16:29 PM 41.9078 -108.2256 84° East 503 579 35,000  Level Salt Lake Center
Wed 04:17:30 PM 41.9183 -108.0450 85° East 504 580 35,000  Level Salt Lake Center
Wed 04:18:31 PM 41.9300 -107.8622 85° East 506 582 35,000  Level Denver Center
Wed 04:19:33 PM 41.9431 -107.6531 85° East 506 582 35,000  Level Denver Center
Wed 04:20:35 PM 41.9550 -107.4753 85° East 502 578 35,000  Level Denver Center
Wed 04:26:23 PM 42.0190 -106.3560 85° East 508 585 35,000  Level FlightAware ADS-B
Wed 04:27:01 PM 42.0250 -106.2400 86° East 508 585 35,000  Level FlightAware ADS-B
Wed 04:27:45 PM 42.0320 -106.0960 86° East 508 585 35,000  Level FlightAware ADS-B
Wed 04:28:25 PM 42.0380 -105.9750 86° East 509 586 35,000  Level FlightAware ADS-B
Wed 04:29:09 PM 42.0450 -105.8360 86° East 509 586 35,000  Level FlightAware ADS-B
Wed 04:33:17 PM 42.0847 -105.0500 86° East 507 583 35,000  Level FlightAware ADS-B
Wed 04:33:49 PM 42.0934 -104.9500 83° East 505 581 35,000  Level FlightAware ADS-B
Wed 04:34:20 PM 42.1018 -104.8540 83° East 507 583 35,000  Level FlightAware ADS-B
Wed 04:34:53 PM 42.1109 -104.7510 83° East 506 582 35,000  Level FlightAware ADS-B
Wed 04:35:23 PM 42.1191 -104.6550 83° East 507 583 35,000  Level FlightAware ADS-B
Wed 04:35:54 PM 42.1271 -104.5610 83° East 507 583 35,000  Level FlightAware ADS-B
Wed 04:36:24 PM 42.1350 -104.4670 84° East 505 581 35,000  Level FlightAware ADS-B
Wed 04:36:55 PM 42.1430 -104.3710 84° East 503 579 35,000  Level FlightAware ADS-B
Wed 04:37:25 PM 42.1508 -104.2770 84° East 502 578 35,000  Level FlightAware ADS-B
Wed 04:37:58 PM 42.1592 -104.1730 84° East 502 578 35,000  Level FlightAware ADS-B
Wed 04:38:29 PM 42.1668 -104.0790 84° East 504 580 35,000  Level FlightAware ADS-B
Wed 04:38:59 PM 42.1745 -103.9840 84° East 504 580 35,000  Level FlightAware ADS-B
Wed 04:39:38 PM 42.1840 -103.8630 84° East 504 580 35,000  Level FlightAware ADS-B
Wed 04:40:08 PM 42.1913 -103.7690 84° East 504 580 35,000  Level FlightAware ADS-B
Wed 04:40:39 PM 42.1985 -103.6750 84° East 504 580 35,000 492 Level FlightAware ADS-B
Wed 04:41:09 PM 42.2057 -103.5810 84° East 503 579 35,500 968 Climbing FlightAware ADS-B
Wed 04:41:41 PM 42.2132 -103.4800 84° East 503 579 36,000 968 Climbing FlightAware ADS-B
Wed 04:42:11 PM 42.2202 -103.3870 84° East 501 577 36,500 1,000 Climbing FlightAware ADS-B
Wed 04:42:41 PM 42.2271 -103.2940 84° East 498 573 37,000 500 Climbing FlightAware ADS-B
Wed 04:43:11 PM 42.2338 -103.2010 84° East 493 567 37,000  Level FlightAware ADS-B
Wed 04:43:42 PM 42.2406 -103.1080 84° East 493 567 37,000  Level FlightAware ADS-B
Wed 04:44:13 PM 42.2473 -103.0130 85° East 497 572 37,000  Level FlightAware ADS-B
Wed 04:44:43 PM 42.2539 -102.9190 85° East 499 574 37,000  Level FlightAware ADS-B
Wed 04:45:15 PM 42.2608 -102.8190 85° East 500 575 37,000  Level FlightAware ADS-B
Wed 04:45:53 PM 42.2688 -102.7020 85° East 500 575 37,000  Level FlightAware ADS-B
Wed 04:46:51 PM 42.2810 -102.5210 85° East 502 578 37,000  Level FlightAware ADS-B
Wed 04:47:25 PM 42.2879 -102.4160 85° East 501 577 37,000  Level FlightAware ADS-B
Wed 04:48:30 PM 42.2992 -102.2306 85° East 501 577 37,000  Level Denver Center
Wed 04:49:33 PM 42.3136 -102.0506 84° East 503 579 37,000  Level Denver Center
Wed 04:50:35 PM 42.3261 -101.8411 85° East 502 578 37,000  Level Denver Center
Wed 04:51:37 PM 42.3353 -101.6592 86° East 504 580 37,000  Level Denver Center
Wed 04:52:39 PM 42.3478 -101.4497 85° East 502 578 37,000  Level Denver Center
Wed 04:53:41 PM 42.3569 -101.2706 86° East 500 575 37,000  Level Denver Center
Wed 04:54:43 PM 42.3689 -101.0614 86° East 498 573 37,000  Level Denver Center
Wed 05:00:07 PM 42.4187 -100.0320 86° East 503 579 37,000  Level FlightAware ADS-B
Wed 05:00:40 PM 42.4232 -99.9300 87° East 503 579 37,000  Level FlightAware ADS-B
Wed 05:01:17 PM 42.4281 -99.8155 87° East 502 578 37,000  Level FlightAware ADS-B
Wed 05:01:47 PM 42.4321 -99.7216 87° East 501 577 37,000  Level FlightAware ADS-B
Wed 05:02:18 PM 42.4361 -99.6245 87° East 500 575 37,000  Level FlightAware ADS-B
Wed 05:02:48 PM 42.4400 -99.5302 87° East 499 574 37,000  Level FlightAware ADS-B
Wed 05:03:18 PM 42.4436 -99.4371 87° East 498 573 37,000  Level FlightAware ADS-B
Wed 05:03:48 PM 42.4473 -99.3441 87° East 498 573 37,000  Level FlightAware ADS-B
Wed 05:04:29 PM 42.4520 -99.2168 87° East 498 573 37,000  Level FlightAware ADS-B
Wed 05:05:36 PM 42.4595 -99.0106 87° East 500 575 37,000  Level FlightAware ADS-B
Wed 05:06:06 PM 42.4628 -98.9160 87° East 502 578 37,000  Level FlightAware ADS-B
Wed 05:06:37 PM 42.4661 -98.8197 87° East 502 578 37,000  Level FlightAware ADS-B
Wed 05:07:59 PM 42.4764 -98.5613 87° East 501 577 37,000  Level FlightAware ADS-B
Wed 05:08:31 PM 42.4817 -98.4633 86° East 501 577 37,000  Level FlightAware ADS-B
Wed 05:09:01 PM 42.4866 -98.3686 86° East 502 578 37,000  Level FlightAware ADS-B
Wed 05:09:32 PM 42.4912 -98.2732 86° East 502 578 37,000  Level FlightAware ADS-B
Wed 05:10:02 PM 42.4957 -98.1791 86° East 502 578 37,000  Level FlightAware ADS-B
Wed 05:10:33 PM 42.5001 -98.0827 86° East 502 578 37,000  Level FlightAware ADS-B
Wed 05:11:03 PM 42.5044 -97.9881 86° East 503 579 37,000  Level FlightAware ADS-B
Wed 05:11:33 PM 42.5086 -97.8918 87° East 503 579 37,000  Level FlightAware ADS-B
Wed 05:12:03 PM 42.5127 -97.7977 87° East 504 580 37,000  Level FlightAware ADS-B
Wed 05:12:51 PM 42.5191 -97.6472 87° East 504 580 37,000  Level FlightAware ADS-B
Wed 05:13:22 PM 42.5231 -97.5510 87° East 504 580 37,000  Level FlightAware ADS-B
Wed 05:13:53 PM 42.5271 -97.4542 87° East 504 580 37,000  Level FlightAware ADS-B
Wed 05:14:25 PM 42.5311 -97.3538 87° East 505 581 37,000  Level FlightAware ADS-B
Wed 05:14:55 PM 42.5349 -97.2565 87° East 505 581 37,000  Level FlightAware ADS-B
Wed 05:15:26 PM 42.5386 -97.1593 87° East 504 580 37,000  Level FlightAware ADS-B
Wed 05:15:57 PM 42.5421 -97.0648 87° East 503 579 37,000  Level FlightAware ADS-B
Wed 05:16:27 PM 42.5456 -96.9696 87° East 501 577 37,000  Level FlightAware ADS-B
Wed 05:16:57 PM 42.5490 -96.8749 87° East 500 575 37,000  Level FlightAware ADS-B
Wed 05:17:28 PM 42.5524 -96.7789 87° East 499 574 37,000  Level FlightAware ADS-B
Wed 05:18:01 PM 42.5559 -96.6771 87° East 499 574 37,000  Level FlightAware ADS-B
Wed 05:18:33 PM 42.5592 -96.5770 87° East 498 573 37,000  Level FlightAware ADS-B
Wed 05:19:07 PM 42.5626 -96.4716 87° East 499 574 37,000  Level FlightAware ADS-B
Wed 05:19:37 PM 42.5656 -96.3771 87° East 500 575 37,000  Level FlightAware ADS-B
Wed 05:20:11 PM 42.5688 -96.2701 88° East 501 577 37,000  Level FlightAware ADS-B
Wed 05:20:42 PM 42.5716 -96.1748 88° East 501 577 37,000  Level FlightAware ADS-B
Wed 05:21:12 PM 42.5744 -96.0792 88° East 501 577 37,000  Level FlightAware ADS-B
Wed 05:21:43 PM 42.5770 -95.9827 88° East 501 577 37,000  Level FlightAware ADS-B
Wed 05:22:13 PM 42.5797 -95.8873 88° East 502 578 37,000  Level FlightAware ADS-B
Wed 05:22:44 PM 42.5822 -95.7909 88° East 502 578 37,000  Level FlightAware ADS-B
Wed 05:23:14 PM 42.5847 -95.6963 88° East 503 579 37,000  Level FlightAware ADS-B
Wed 05:23:45 PM 42.5870 -95.6007 88° East 503 579 37,000  Level FlightAware ADS-B
Wed 05:24:15 PM 42.5892 -95.5062 88° East 503 579 37,000  Level FlightAware ADS-B
Wed 05:24:48 PM 42.5916 -95.4012 88° East 503 579 37,000  Level FlightAware ADS-B
Wed 05:25:18 PM 42.5937 -95.3065 88° East 503 579 37,000  Level FlightAware ADS-B
Wed 05:25:49 PM 42.5958 -95.2103 88° East 503 579 37,000  Level FlightAware ADS-B
Wed 05:26:19 PM 42.5977 -95.1156 88° East 503 579 37,000  Level FlightAware ADS-B
Wed 05:26:49 PM 42.5995 -95.0201 89° East 502 578 37,000  Level FlightAware ADS-B
Wed 05:27:20 PM 42.6013 -94.9237 89° East 503 579 37,000  Level FlightAware ADS-B
Wed 05:27:51 PM 42.6032 -94.8240 88° East 503 579 37,000  Level FlightAware ADS-B
Wed 05:28:22 PM 42.6047 -94.7294 89° East 502 578 37,000  Level FlightAware ADS-B
Wed 05:28:55 PM 42.6064 -94.6257 89° East 502 578 37,000  Level FlightAware ADS-B
Wed 05:29:25 PM 42.6079 -94.5306 89° East 501 577 37,000  Level FlightAware ADS-B
Wed 05:29:55 PM 42.6092 -94.4353 89° East 501 577 37,000  Level FlightAware ADS-B
Wed 05:30:32 PM 42.6108 -94.3208 89° East 501 577 37,000  Level FlightAware ADS-B
Wed 05:31:08 PM 42.6120 -94.2083 89° East 501 577 37,000  Level FlightAware ADS-B
Wed 05:31:40 PM 42.6128 -94.1086 89° East 501 577 37,000  Level FlightAware ADS-B
Wed 05:32:21 PM 42.6138 -93.9787 89° East 500 575 37,000  Level FlightAware ADS-B
Wed 05:32:53 PM 42.6144 -93.8779 90° East 498 573 37,000  Level FlightAware ADS-B
Wed 05:33:28 PM 42.6151 -93.7700 89° East 499 574 37,000  Level FlightAware ADS-B
Wed 05:34:35 PM 42.6160 -93.5620 90° East 500 575 37,000  Level FlightAware ADS-B
Wed 05:35:15 PM 42.6160 -93.4330 90° East 501 577 37,000  Level FlightAware ADS-B
Wed 05:35:53 PM 42.6170 -93.3160 89° East 501 577 37,000  Level FlightAware ADS-B
Wed 05:36:41 PM 42.6170 -93.1660 90° East 502 578 37,000  Level FlightAware ADS-B
Wed 05:37:19 PM 42.6170 -93.0470 90° East 503 579 37,000  Level FlightAware ADS-B
Wed 05:38:03 PM 42.6160 -92.9060 91° East 503 579 37,000  Level FlightAware ADS-B
Wed 05:38:47 PM 42.6160 -92.7700 90° East 503 579 37,000  Level FlightAware ADS-B
Wed 05:39:23 PM 42.6160 -92.6560 90° East 505 581 37,000  Level FlightAware ADS-B
Wed 05:40:11 PM 42.6150 -92.5030 90° East 501 577 37,000  Level FlightAware ADS-B
Wed 05:40:53 PM 42.6140 -92.3770 91° East 494 568 37,000  Level FlightAware ADS-B
Wed 05:41:33 PM 42.6130 -92.2510 91° East 491 565 37,000  Level FlightAware ADS-B
Wed 05:42:17 PM 42.6120 -92.1140 91° East 493 567 37,000  Level FlightAware ADS-B
Wed 05:42:53 PM 42.6110 -92.0070 91° East 495 570 37,000  Level FlightAware ADS-B
Wed 05:43:41 PM 42.6090 -91.8550 91° East 496 571 37,000  Level FlightAware ADS-B
Wed 05:44:19 PM 42.6080 -91.7370 91° East 498 573 37,000  Level FlightAware ADS-B
Wed 05:47:17 PM 42.5990 -91.1830 91° East 498 573 37,000  Level FlightAware ADS-B
Wed 05:47:57 PM 42.5970 -91.0570 91° East 496 571 37,000  Level FlightAware ADS-B
Wed 05:48:41 PM 42.5950 -90.9200 91° East 495 570 37,000  Level FlightAware ADS-B
Wed 05:49:21 PM 42.5920 -90.7960 92° East 494 568 37,000  Level FlightAware ADS-B
Wed 05:50:04 PM 42.5890 -90.6640 92° East 491 565 37,000  Level FlightAware ADS-B
Wed 05:50:44 PM 42.5870 -90.5430 91° East 487 560 37,000  Level FlightAware ADS-B
Wed 05:51:21 PM 42.5840 -90.4320 92° East 485 558 37,000  Level FlightAware ADS-B
Wed 05:52:09 PM 42.5800 -90.2860 92° East 481 554 37,000  Level FlightAware ADS-B
Wed 05:52:51 PM 42.5770 -90.1580 92° East 479 551 37,000  Level FlightAware ADS-B
Wed 05:53:29 PM 42.5740 -90.0480 92° East 475 547 37,000  Level FlightAware ADS-B
Wed 05:54:17 PM 42.5700 -89.9020 92° East 471 542 37,000  Level FlightAware ADS-B
Wed 05:54:57 PM 42.5670 -89.7870 92° East 471 542 37,000  Level FlightAware ADS-B
Wed 05:55:39 PM 42.5630 -89.6620 92° East 468 539 37,000  Level FlightAware ADS-B
Wed 05:56:23 PM 42.5590 -89.5340 92° East 465 535 37,000  Level FlightAware ADS-B
Wed 05:56:59 PM 42.5560 -89.4280 92° East 462 532 37,000  Level FlightAware ADS-B
Wed 05:57:47 PM 42.5510 -89.2930 93° East 459 528 37,000  Level FlightAware ADS-B
Wed 05:58:26 PM 42.5470 -89.1820 93° East 459 528 37,000  Level FlightAware ADS-B
Wed 05:59:11 PM 42.5430 -89.0530 92° East 461 531 37,000  Level FlightAware ADS-B
Wed 05:59:53 PM 42.5380 -88.9300 93° East 461 531 37,000  Level FlightAware ADS-B
Wed 06:00:29 PM 42.5340 -88.8240 93° East 461 531 37,000  Level FlightAware ADS-B
Wed 06:01:15 PM 42.5290 -88.6940 93° East 461 531 37,000  Level FlightAware ADS-B
Wed 06:01:55 PM 42.5250 -88.5780 93° East 462 532 37,000  Level FlightAware ADS-B
Wed 06:02:39 PM 42.5200 -88.4530 93° East 464 534 37,000  Level FlightAware ADS-B
Wed 06:03:21 PM 42.5140 -88.3280 94° East 466 536 37,000  Level FlightAware ADS-B
Wed 06:04:04 PM 42.5090 -88.2050 93° East 468 539 37,000  Level FlightAware ADS-B
Wed 06:04:48 PM 42.5030 -88.0760 94° East 469 540 37,000  Level FlightAware ADS-B
Wed 06:05:26 PM 42.5000 -87.9620 92° East 473 544 37,000  Level FlightAware ADS-B
Wed 06:06:10 PM 42.5000 -87.8340 90° East 474 545 37,000  Level FlightAware ADS-B
Wed 06:06:46 PM 42.5000 -87.7250 90° East 474 545 37,000  Level FlightAware ADS-B
Wed 06:07:28 PM 42.4990 -87.6020 91° East 473 544 37,000  Level FlightAware ADS-B
Wed 06:08:17 PM 42.4990 -87.4570 90° East 472 543 37,000  Level FlightAware ADS-B
Wed 06:08:58 PM 42.4980 -87.3500 91° East 472 543 37,000  Level FlightAware ADS-B
Wed 06:09:40 PM 42.4980 -87.2130 90° East 471 542 37,000  Level FlightAware ADS-B
Wed 06:10:19 PM 42.4970 -87.1020 91° East 471 542 37,000  Level FlightAware ADS-B
Wed 06:11:00 PM 42.4960 -86.9810 91° East 470 541 37,000  Level FlightAware ADS-B
Wed 06:11:47 PM 42.4950 -86.8390 90° East 469 540 37,000  Level FlightAware ADS-B
Wed 06:12:28 PM 42.4930 -86.7210 91° East 469 540 37,000  Level FlightAware ADS-B
Wed 06:13:05 PM 42.4920 -86.6120 91° East 468 539 37,000  Level FlightAware ADS-B
Wed 06:13:53 PM 42.4900 -86.4710 91° East 469 540 37,000  Level FlightAware ADS-B
Wed 06:14:33 PM 42.4890 -86.3520 91° East 469 540 37,000  Level FlightAware ADS-B
Wed 06:16:55 PM 42.4830 -85.9830 91° East 471 542 37,000  Level FlightAware ADS-B
Wed 06:17:55 PM 42.4790 -85.7590 91° East 472 543 37,000  Level FlightAware ADS-B
Wed 06:18:35 PM 42.4760 -85.6420 92° East 471 542 37,000  Level FlightAware ADS-B
Wed 06:19:03 PM 42.4750 -85.5580 91° East 472 543 37,000  Level FlightAware ADS-B
Wed 06:19:48 PM 42.4720 -85.4280 92° East 472 543 37,000  Level FlightAware ADS-B
Wed 06:20:28 PM 42.4690 -85.3090 92° East 473 544 37,000  Level FlightAware ADS-B
Wed 06:21:12 PM 42.4660 -85.1790 92° East 480 552 37,000  Level FlightAware ADS-B
Wed 06:21:52 PM 42.4630 -85.0590 92° East 488 562 37,000  Level FlightAware ADS-B
Wed 06:22:36 PM 42.4600 -84.9250 92° East 489 563 37,000  Level FlightAware ADS-B
Wed 06:23:16 PM 42.4560 -84.8050 93° East 490 564 37,000  Level FlightAware ADS-B
Wed 06:23:58 PM 42.4530 -84.6750 92° East 492 566 37,000  Level FlightAware ADS-B
Wed 06:24:36 PM 42.4490 -84.5550 93° East 491 565 37,000  Level FlightAware ADS-B
Wed 06:25:20 PM 42.4450 -84.4210 92° East 490 564 37,000  Level FlightAware ADS-B
Wed 06:26:01 PM 42.4410 -84.2970 92° East 488 562 37,000  Level FlightAware ADS-B
Wed 06:26:48 PM 42.4370 -84.1560 92° East 487 560 37,000  Level FlightAware ADS-B
Wed 06:27:28 PM 42.4330 -84.0370 93° East 485 558 37,000  Level FlightAware ADS-B
Wed 06:28:09 PM 42.4280 -83.9080 93° East 484 557 37,000  Level FlightAware ADS-B
Wed 06:28:53 PM 42.4230 -83.7790 93° East 483 556 37,000  Level FlightAware ADS-B
Wed 06:29:32 PM 42.4190 -83.6620 93° East 483 556 37,000  Level FlightAware ADS-B
Wed 06:30:24 PM 42.4130 -83.5040 93° East 482 555 37,000  Level FlightAware ADS-B
Wed 06:31:24 PM 42.4060 -83.3220 93° East 480 552 37,000  Level FlightAware ADS-B
Wed 06:32:05 PM 42.4010 -83.1980 93° East 480 552 37,000  Level FlightAware ADS-B
Wed 06:33:28 PM 42.3900 -82.9530 93° East 480 552 37,000  Level FlightAware ADS-B
Wed 06:34:15 PM 42.3840 -82.8170 93° East 480 552 37,000  Level FlightAware ADS-B
Wed 06:34:58 PM 42.3780 -82.6850 93° East 481 554 37,000  Level FlightAware ADS-B
Wed 06:35:38 PM 42.3740 -82.5640 93° East 482 555 37,000  Level FlightAware ADS-B
Wed 06:36:22 PM 42.3690 -82.4310 93° East 483 556 37,000  Level FlightAware ADS-B
Wed 06:37:02 PM 42.3640 -82.3100 93° East 484 557 37,000  Level FlightAware ADS-B
Wed 06:37:40 PM 42.3590 -82.1950 93° East 484 557 37,000  Level FlightAware ADS-B
Wed 06:38:26 PM 42.3540 -82.0750 93° East 486 559 37,000  Level FlightAware ADS-B
Wed 06:39:08 PM 42.3480 -81.9350 93° East 486 559 37,000  Level FlightAware ADS-B
Wed 06:40:03 PM 42.3400 -81.7610 94° East 486 559 37,000  Level FlightAware ADS-B
Wed 06:40:42 PM 42.3340 -81.6460 94° East 485 558 37,000  Level FlightAware ADS-B
Wed 06:41:41 PM 42.3270 -81.4810 93° East 486 559 37,000  Level FlightAware ADS-B
Wed 06:42:27 PM 42.3190 -81.3300 94° East 487 560 37,000  Level FlightAware ADS-B
Wed 06:43:07 PM 42.3130 -81.2040 94° East 487 560 37,000  Level FlightAware ADS-B
Wed 06:43:49 PM 42.3070 -81.0770 94° East 488 562 37,000  Level FlightAware ADS-B
Wed 06:44:31 PM 42.3000 -80.9490 94° East 488 562 37,000  Level FlightAware ADS-B
Wed 06:45:05 PM 42.2940 -80.8450 94° East 488 562 37,000  Level FlightAware ADS-B
Wed 06:45:53 PM 42.2870 -80.7060 94° East 489 563 37,000  Level FlightAware ADS-B
Wed 06:46:38 PM 42.2790 -80.5630 94° East 489 563 37,000  Level FlightAware ADS-B
Wed 06:47:13 PM 42.2740 -80.4810 95° East 490 564 37,000  Level FlightAware ADS-B
Wed 06:48:09 PM 42.2640 -80.3100 94° East 491 565 37,000  Level FlightAware ADS-B
Wed 06:48:55 PM 42.2560 -80.1680 94° East 491 565 37,000  Level FlightAware ADS-B
Wed 06:49:36 PM 42.2480 -80.0380 95° East 490 564 37,000  Level FlightAware ADS-B
Wed 06:50:19 PM 42.2410 -79.9130 94° East 489 563 37,000  Level FlightAware ADS-B
Wed 06:50:58 PM 42.2330 -79.7920 95° East 489 563 37,000  Level FlightAware ADS-B
Wed 06:51:38 PM 42.2250 -79.6750 95° East 489 563 37,000  Level FlightAware ADS-B
Wed 06:52:25 PM 42.2060 -79.5360 100° East 488 562 37,000  Level FlightAware ADS-B
Wed 06:53:08 PM 42.1810 -79.4010 104° East 487 560 37,000  Level FlightAware ADS-B
Wed 06:53:50 PM 42.1540 -79.2640 105° East 487 560 37,000  Level FlightAware ADS-B
Wed 06:54:34 PM 42.1280 -79.1370 105° East 486 559 37,000  Level FlightAware ADS-B
Wed 06:55:08 PM 42.1080 -79.0340 105° East 486 559 37,000 -357 Level FlightAware ADS-B
Wed 06:55:58 PM 42.0790 -78.8870 105° East 484 557 36,500 -667 Descending FlightAware ADS-B
Wed 06:56:38 PM 42.0550 -78.7740 106° East 488 562 36,000 -357 Descending FlightAware ADS-B
Wed 06:57:22 PM 42.0290 -78.6430 105° East 488 562 36,000  Level FlightAware ADS-B
Wed 06:58:02 PM 42.0050 -78.5260 105° East 491 565 36,000  Level FlightAware ADS-B
Wed 06:58:43 PM 41.9810 -78.4080 105° East 492 566 36,000  Level FlightAware ADS-B
Wed 06:59:20 PM 41.9590 -78.3000 105° East 493 567 36,000 -698 Level FlightAware ADS-B
Wed 07:00:09 PM 41.9280 -78.1530 106° East 494 568 35,000 -659 Descending FlightAware ADS-B
Wed 07:00:51 PM 41.9030 -78.0300 105° East 496 571 35,000  Level FlightAware ADS-B
Wed 07:01:31 PM 41.8780 -77.9120 106° East 497 572 35,000  Level FlightAware ADS-B
Wed 07:02:13 PM 41.8480 -77.7860 108° East 494 568 35,000  Level FlightAware ADS-B
Wed 07:02:57 PM 41.8150 -77.6610 109° East 495 570 35,000  Level FlightAware ADS-B
Wed 07:03:41 PM 41.7810 -77.5330 110° East 494 568 35,000  Level FlightAware ADS-B
Wed 07:04:17 PM 41.7540 -77.4310 110° East 494 568 35,000  Level FlightAware ADS-B
Wed 07:05:01 PM 41.7210 -77.3070 110° East 495 570 35,000  Level FlightAware ADS-B
Wed 07:05:37 PM 41.6920 -77.2020 110° East 495 570 35,000 -706 Level FlightAware ADS-B
Wed 07:06:26 PM 41.6550 -77.0640 110° East 500 575 34,000 -1,079 Descending FlightAware ADS-B
Wed 07:07:06 PM 41.6240 -76.9490 110° East 504 580 33,400 -1,059 Descending FlightAware ADS-B
Wed 07:07:17 PM 41.6127 -76.9080 110° East 504 580 33,100 -522 Descending FlightAware ADS-B
Wed 07:07:52 PM 41.5850 -76.8065 110° East 501 577 33,000 -90 Descending FlightAware ADS-B
Wed 07:08:24 PM 41.5599 -76.7147 110° East 502 578 33,000  Level FlightAware ADS-B
Wed 07:08:54 PM 41.5356 -76.6262 110° East 501 577 33,000  Level FlightAware ADS-B
Wed 07:09:25 PM 41.5113 -76.5380 110° East 503 579 33,000  Level FlightAware ADS-B
Wed 07:09:55 PM 41.4871 -76.4504 110° East 502 578 33,000  Level FlightAware ADS-B
Wed 07:10:28 PM 41.4609 -76.3560 110° East 502 578 33,000 -277 Level FlightAware ADS-B
Wed 07:11:00 PM 41.4349 -76.2632 110° East 499 574 32,700 -857 Descending FlightAware ADS-B
Wed 07:11:31 PM 41.4099 -76.1738 110° East 501 577 32,100 -1,180 Descending FlightAware ADS-B
Wed 07:12:01 PM 41.3853 -76.0864 111° Southeast 502 578 31,500 -1,258 Descending FlightAware ADS-B
Wed 07:12:33 PM 41.3594 -75.9943 111° Southeast 505 581 30,800 -1,333 Descending FlightAware ADS-B
Wed 07:13:04 PM 41.3340 -75.9044 111° Southeast 508 585 30,100 -1,279 Descending FlightAware ADS-B
Wed 07:13:34 PM 41.3090 -75.8160 111° Southeast 509 586 29,500 -1,672 Descending FlightAware ADS-B
Wed 07:14:05 PM 41.2836 -75.7276 111° Southeast 506 582 28,400 -2,361 Descending FlightAware ADS-B
Wed 07:14:35 PM 41.2568 -75.6410 112° Southeast 499 574 27,100 -2,400 Descending FlightAware ADS-B
Wed 07:15:05 PM 41.2292 -75.5575 114° Southeast 492 566 26,000 -2,300 Descending FlightAware ADS-B
Wed 07:15:35 PM 41.2012 -75.4745 114° Southeast 485 558 24,800 -2,200 Descending FlightAware ADS-B
Wed 07:16:05 PM 41.1741 -75.3937 114° Southeast 473 544 23,800 -1,770 Descending FlightAware ADS-B
Wed 07:16:36 PM 41.1478 -75.3155 114° Southeast 459 528 23,000 -968 Descending FlightAware ADS-B
Wed 07:17:07 PM 41.1208 -75.2356 114° Southeast 461 531 22,800 -689 Descending FlightAware ADS-B
Wed 07:17:37 PM 41.0940 -75.1570 114° Southeast 459 528 22,300 -1,279 Descending FlightAware ADS-B
Wed 07:18:08 PM 41.0673 -75.0781 114° Southeast 455 524 21,500 -1,258 Descending FlightAware ADS-B
Wed 07:18:39 PM 41.0413 -75.0020 114° Southeast 449 517 21,000 -492 Descending FlightAware ADS-B
Wed 07:19:09 PM 41.0149 -74.9246 114° Southeast 444 511 21,000  Level FlightAware ADS-B
Wed 07:19:28 PM 41.0019 -74.8790 111° Southeast 430 495 21,000  Level FlightAware ADS-B
Wed 07:19:35 PM 40.9979 -74.8613 107° East 423 487 21,000  Level FlightAware ADS-B
Wed 07:19:41 PM 40.9948 -74.8450 104° East 416 479 21,000  Level FlightAware ADS-B
Wed 07:20:10 PM 40.9859 -74.7755 100° East 422 486 21,000  Level FlightAware ADS-B
Wed 07:20:13 PM 40.9851 -74.7687 99° East 384 442 21,000  Level FlightAware ADS-B
Wed 07:20:43 PM 40.9778 -74.7019 98° East 356 410 21,000  Level FlightAware ADS-B
Wed 07:20:45 PM 40.9774 -74.6987 99° East 362 417 21,000  Level FlightAware ADS-B
Wed 07:21:13 PM 40.9709 -74.6380 98° East 348 400 21,000  Level FlightAware ADS-B
Wed 07:21:22 PM 40.9688 -74.6193 98° East 347 399 21,000  Level FlightAware ADS-B
Wed 07:21:44 PM 40.9639 -74.5745 98° East 346 398 21,000  Level FlightAware ADS-B
Wed 07:22:16 PM 40.9566 -74.5074 98° East 350 403 21,000 -290 Level FlightAware ADS-B
Wed 07:22:46 PM 40.9496 -74.4439 98° East 347 399 20,700 -885 Descending FlightAware ADS-B
Wed 07:23:17 PM 40.9425 -74.3801 98° East 341 392 20,100 -1,000 Descending FlightAware ADS-B
Wed 07:23:28 PM 40.9399 -74.3569 98° East 339 390 20,000 -194 Descending FlightAware ADS-B
Wed 07:23:48 PM 40.9352 -74.3156 99° East 345 397 20,000  Level FlightAware ADS-B
Wed 07:24:16 PM 40.9286 -74.2570 98° East 344 396 20,000  Level FlightAware ADS-B
Wed 07:24:18 PM 40.9281 -74.2525 98° East 341 392 20,000  Level FlightAware ADS-B
Wed 07:24:49 PM 40.9210 -74.1894 98° East 341 392 20,000  Level FlightAware ADS-B
Wed 07:24:52 PM 40.9203 -74.1829 98° East 341 392 20,000  Level FlightAware ADS-B
Wed 07:25:08 PM 40.9165 -74.1503 99° East 338 389 20,000  Level FlightAware ADS-B
Wed 07:25:13 PM 40.9148 -74.1415 104° East 338 389 20,000  Level FlightAware ADS-B
Wed 07:25:16 PM 40.9129 -74.1341 109° East 336 387 20,000  Level FlightAware ADS-B
Wed 07:25:20 PM 40.9106 -74.1274 114° Southeast 334 384 20,000  Level FlightAware ADS-B
Wed 07:25:28 PM 40.9041 -74.1143 123° Southeast 330 380 20,000  Level FlightAware ADS-B
Wed 07:25:35 PM 40.8969 -74.1045 134° Southeast 325 374 20,000  Level FlightAware ADS-B
Wed 07:25:39 PM 40.8912 -74.0988 143° Southeast 323 372 20,000  Level FlightAware ADS-B
Wed 07:25:45 PM 40.8847 -74.0939 150° Southeast 319 367 20,000  Level FlightAware ADS-B
Wed 07:25:47 PM 40.8820 -74.0923 156° South 318 366 20,000  Level FlightAware ADS-B
Wed 07:25:48 PM 40.8797 -74.0912 160° South 316 364 20,000  Level FlightAware ADS-B
Wed 07:25:51 PM 40.8755 -74.0894 162° South 314 361 20,000  Level FlightAware ADS-B
Wed 07:25:53 PM 40.8737 -74.0888 166° South 314 361 20,000  Level FlightAware ADS-B
Wed 07:25:57 PM 40.8677 -74.0874 170° South 311 358 20,000  Level FlightAware ADS-B
Wed 07:26:00 PM 40.8635 -74.0869 175° South 308 354 20,000  Level FlightAware ADS-B
Wed 07:26:04 PM 40.8580 -74.0870 181° South 305 351 20,000  Level FlightAware ADS-B
Wed 07:26:05 PM 40.8566 -74.0871 183° South 304 350 20,000  Level FlightAware ADS-B
Wed 07:26:07 PM 40.8530 -74.0876 186° South 302 348 20,000  Level FlightAware ADS-B
Wed 07:26:17 PM 40.8396 -74.0925 195° South 296 341 20,000  Level FlightAware ADS-B
Wed 07:26:20 PM 40.8365 -74.0944 205° Southwest 294 338 20,000  Level FlightAware ADS-B
Wed 07:26:24 PM 40.8314 -74.0983 210° Southwest 291 335 20,000  Level FlightAware ADS-B
Wed 07:26:25 PM 40.8308 -74.0988 212° Southwest 291 335 20,000  Level FlightAware ADS-B
Wed 07:26:31 PM 40.8240 -74.1057 218° Southwest 286 329 20,000  Level FlightAware ADS-B
Wed 07:26:32 PM 40.8236 -74.1061 217° Southwest 286 329 20,000  Level FlightAware ADS-B
Wed 07:26:35 PM 40.8204 -74.1103 225° Southwest 283 326 20,000  Level FlightAware ADS-B
Wed 07:26:40 PM 40.8167 -74.1163 231° Southwest 281 323 20,000  Level FlightAware ADS-B
Wed 07:26:42 PM 40.8149 -74.1196 234° Southwest 280 322 20,000  Level FlightAware ADS-B
Wed 07:26:48 PM 40.8110 -74.1284 240° Southwest 278 320 20,000  Level FlightAware ADS-B
Wed 07:26:49 PM 40.8103 -74.1306 247° West 278 320 20,000  Level FlightAware ADS-B
Wed 07:26:52 PM 40.8089 -74.1349 247° West 277 319 20,000  Level FlightAware ADS-B
Wed 07:26:54 PM 40.8083 -74.1374 252° West 277 319 20,000  Level FlightAware ADS-B
Wed 07:27:01 PM 40.8060 -74.1498 256° West 275 316 20,000  Level FlightAware ADS-B
Wed 07:27:07 PM 40.8053 -74.1599 265° West 274 315 20,000  Level FlightAware ADS-B
Wed 07:27:15 PM 40.8059 -74.1718 274° West 274 315 20,000  Level FlightAware ADS-B
Wed 07:27:21 PM 40.8075 -74.1819 282° West 275 316 20,000  Level FlightAware ADS-B
Wed 07:27:24 PM 40.8089 -74.1871 290° West 276 318 20,000  Level FlightAware ADS-B
Wed 07:27:28 PM 40.8110 -74.1938 292° West 277 319 20,000  Level FlightAware ADS-B
Wed 07:27:32 PM 40.8132 -74.1990 299° West 278 320 20,000  Level FlightAware ADS-B
Wed 07:27:35 PM 40.8155 -74.2039 302° West 275 316 20,000  Level FlightAware ADS-B
Wed 07:27:42 PM 40.8202 -74.2140 302° West 279 321 20,000  Level FlightAware ADS-B
Wed 07:27:43 PM 40.8208 -74.2153 301° West 279 321 20,000  Level FlightAware ADS-B
Wed 07:27:50 PM 40.8251 -74.2263 297° West 278 320 20,000  Level FlightAware ADS-B
Wed 07:28:06 PM 40.8343 -74.2492 298° West 276 318 20,000  Level FlightAware ADS-B
Wed 07:28:15 PM 40.8400 -74.2629 299° West 277 319 20,000  Level FlightAware ADS-B
Wed 07:28:36 PM 40.8537 -74.2935 301° West 279 321 20,000  Level FlightAware ADS-B
Wed 07:28:49 PM 40.8627 -74.3129 302° West 280 322 20,000  Level FlightAware ADS-B
Wed 07:28:58 PM 40.8685 -74.3250 302° West 279 321 20,000  Level FlightAware ADS-B
Wed 07:29:21 PM 40.8841 -74.3578 302° West 275 316 20,000  Level FlightAware ADS-B
Wed 07:29:30 PM 40.8902 -74.3706 302° West 276 318 20,000  Level FlightAware ADS-B
Wed 07:29:52 PM 40.9054 -74.4022 302° West 281 323 20,000  Level FlightAware ADS-B
Wed 07:29:55 PM 40.9078 -74.4062 308° West 282 325 20,000  Level FlightAware ADS-B
Wed 07:30:01 PM 40.9137 -74.4142 314° West 285 328 20,000  Level FlightAware ADS-B
Wed 07:30:09 PM 40.9215 -74.4219 323° Northwest 287 330 20,000  Level FlightAware ADS-B
Wed 07:30:16 PM 40.9307 -74.4283 332° Northwest 290 334 20,000  Level FlightAware ADS-B
Wed 07:30:28 PM 40.9461 -74.4341 344° North 296 341 20,000  Level FlightAware ADS-B
Wed 07:30:35 PM 40.9557 -74.4349 356° North 300 345 20,000  Level FlightAware ADS-B
Wed 07:30:42 PM 40.9656 -74.4335 North 304 350 20,000  Level FlightAware ADS-B
Wed 07:30:47 PM 40.9718 -74.4315 14° North 307 353 20,000  Level FlightAware ADS-B
Wed 07:30:48 PM 40.9733 -74.4308 19° North 281 323 20,000  Level FlightAware ADS-B
Wed 07:30:53 PM 40.9802 -74.4270 23° Northeast 312 359 20,000  Level FlightAware ADS-B
Wed 07:30:59 PM 40.9874 -74.4213 31° Northeast 314 361 20,000  Level FlightAware ADS-B
Wed 07:31:03 PM 40.9921 -74.4164 38° Northeast 319 367 20,000  Level FlightAware ADS-B
Wed 07:31:05 PM 40.9943 -74.4138 42° Northeast 319 367 20,000  Level FlightAware ADS-B
Wed 07:31:12 PM 41.0008 -74.4038 49° Northeast 323 372 20,000  Level FlightAware ADS-B
Wed 07:31:15 PM 41.0037 -74.3979 57° Northeast 326 375 20,000  Level FlightAware ADS-B
Wed 07:31:20 PM 41.0067 -74.3898 64° Northeast 327 376 20,000  Level FlightAware ADS-B
Wed 07:31:28 PM 41.0103 -74.3746 73° East 331 381 20,000  Level FlightAware ADS-B
Wed 07:31:32 PM 41.0110 -74.3666 83° East 332 382 20,000  Level FlightAware ADS-B
Wed 07:31:40 PM 41.0106 -74.3500 92° East 334 384 20,000 -375 Level FlightAware ADS-B
Wed 07:31:48 PM 41.0077 -74.3347 104° East 333 383 19,900 -750 Descending FlightAware ADS-B
Wed 07:32:12 PM 40.9900 -74.2920 119° Southeast 329 379 19,600 -938 Descending FlightAware ADS-B
Wed 07:32:20 PM 40.9834 -74.2783 123° Southeast 328 377 19,400 -1,161 Descending FlightAware ADS-B
Wed 07:32:43 PM 40.9642 -74.2393 123° Southeast 326 375 19,000 -774 Descending FlightAware ADS-B
Wed 07:32:51 PM 40.9576 -74.2258 123° Southeast 327 376 19,000  Level FlightAware ADS-B
Wed 07:33:19 PM 40.9351 -74.1791 123° Southeast 326 375 19,000  Level FlightAware ADS-B
Wed 07:33:22 PM 40.9327 -74.1742 123° Southeast 326 375 19,000  Level FlightAware ADS-B
Wed 07:33:45 PM 40.9142 -74.1349 122° Southeast 325 374 19,000  Level FlightAware ADS-B
Wed 07:33:46 PM 40.9137 -74.1341 130° Southeast 325 374 19,000  Level FlightAware ADS-B
Wed 07:33:53 PM 40.9073 -74.1238 129° Southeast 323 372 19,000  Level FlightAware ADS-B
Wed 07:33:54 PM 40.9061 -74.1223 137° Southeast 323 372 19,000  Level FlightAware ADS-B
Wed 07:34:00 PM 40.8990 -74.1145 140° Southeast 320 368 19,000  Level FlightAware ADS-B
Wed 07:34:01 PM 40.8977 -74.1133 145° Southeast 319 367 19,000  Level FlightAware ADS-B
Wed 07:34:05 PM 40.8923 -74.1092 150° Southeast 316 364 19,000  Level FlightAware ADS-B
Wed 07:34:06 PM 40.8916 -74.1087 152° Southeast 316 364 19,000  Level FlightAware ADS-B
Wed 07:34:08 PM 40.8883 -74.1067 155° Southeast 314 361 19,000  Level FlightAware ADS-B
Wed 07:34:12 PM 40.8831 -74.1042 160° South 311 358 19,000  Level FlightAware ADS-B
Wed 07:34:15 PM 40.8799 -74.1031 165° South 310 357 19,000  Level FlightAware ADS-B
Wed 07:34:18 PM 40.8756 -74.1020 169° South 308 354 19,000  Level FlightAware ADS-B
Wed 07:34:21 PM 40.8707 -74.1013 174° South 307 353 19,000  Level FlightAware ADS-B
Wed 07:34:24 PM 40.8670 -74.1012 179° South 305 351 19,000  Level FlightAware ADS-B
Wed 07:34:26 PM 40.8643 -74.1013 182° South 304 350 19,000  Level FlightAware ADS-B
Wed 07:34:30 PM 40.8579 -74.1022 186° South 301 346 19,000  Level FlightAware ADS-B
Wed 07:34:31 PM 40.8572 -74.1024 192° South 301 346 19,000  Level FlightAware ADS-B
Wed 07:34:36 PM 40.8506 -74.1047 195° South 298 343 19,000  Level FlightAware ADS-B
Wed 07:34:39 PM 40.8461 -74.1068 199° South 295 339 19,000  Level FlightAware ADS-B
Wed 07:34:41 PM 40.8441 -74.1080 204° Southwest 295 339 19,000  Level FlightAware ADS-B
Wed 07:34:45 PM 40.8390 -74.1116 208° Southwest 292 336 19,000  Level FlightAware ADS-B
Wed 07:34:51 PM 40.8329 -74.1174 216° Southwest 289 333 19,000  Level FlightAware ADS-B
Wed 07:34:52 PM 40.8319 -74.1185 220° Southwest 288 331 19,000  Level FlightAware ADS-B
Wed 07:34:56 PM 40.8274 -74.1242 224° Southwest 285 328 19,000  Level FlightAware ADS-B
Wed 07:35:04 PM 40.8216 -74.1342 233° Southwest 281 323 19,000  Level FlightAware ADS-B
Wed 07:35:07 PM 40.8195 -74.1390 240° Southwest 278 320 19,000  Level FlightAware ADS-B
Wed 07:35:14 PM 40.8159 -74.1501 247° West 275 316 19,000  Level FlightAware ADS-B
Wed 07:35:20 PM 40.8140 -74.1598 255° West 273 314 19,000  Level FlightAware ADS-B
Wed 07:35:24 PM 40.8132 -74.1663 261° West 272 313 19,000  Level FlightAware ADS-B
Wed 07:35:32 PM 40.8132 -74.1794 270° West 271 312 19,000  Level FlightAware ADS-B
Wed 07:35:36 PM 40.8138 -74.1854 278° West 272 313 19,000  Level FlightAware ADS-B
Wed 07:35:38 PM 40.8143 -74.1893 280° West 271 312 19,000  Level FlightAware ADS-B
Wed 07:35:44 PM 40.8162 -74.1979 286° West 271 312 19,000  Level FlightAware ADS-B
Wed 07:35:45 PM 40.8170 -74.2007 291° West 272 313 19,000  Level FlightAware ADS-B
Wed 07:35:50 PM 40.8195 -74.2078 295° West 272 313 19,000  Level FlightAware ADS-B
Wed 07:35:56 PM 40.8232 -74.2161 301° West 273 314 19,000  Level FlightAware ADS-B
Wed 07:36:03 PM 40.8275 -74.2261 300° West 274 315 19,000  Level FlightAware ADS-B
Wed 07:36:07 PM 40.8301 -74.2326 298° West 275 316 19,000  Level FlightAware ADS-B
Wed 07:36:34 PM 40.8461 -74.2714 299° West 276 318 19,000  Level FlightAware ADS-B
Wed 07:36:38 PM 40.8487 -74.2774 300° West 276 318 19,000  Level FlightAware ADS-B
Wed 07:36:59 PM 40.8629 -74.3089 301° West 276 318 19,000  Level FlightAware ADS-B
Wed 07:37:09 PM 40.8695 -74.3226 303° West 275 316 19,000  Level FlightAware ADS-B
Wed 07:37:14 PM 40.8734 -74.3298 306° West 276 318 19,000  Level FlightAware ADS-B
Wed 07:37:21 PM 40.8787 -74.3379 311° West 276 318 19,000  Level FlightAware ADS-B
Wed 07:37:27 PM 40.8844 -74.3446 318° Northwest 285 328 19,000  Level FlightAware ADS-B
Wed 07:37:35 PM 40.8939 -74.3526 328° Northwest 299 344 19,000  Level FlightAware ADS-B
Wed 07:37:43 PM 40.9051 -74.3580 340° North 312 359 19,000  Level FlightAware ADS-B
Wed 07:37:46 PM 40.9095 -74.3592 348° North 317 365 19,000  Level FlightAware ADS-B
Wed 07:37:58 PM 40.9267 -74.3590 North 330 380 19,000  Level FlightAware ADS-B
Wed 07:38:05 PM 40.9382 -74.3552 14° North 276 318 19,000  Level FlightAware ADS-B
Wed 07:38:06 PM 40.9388 -74.3548 27° Northeast 340 391 19,000  Level FlightAware ADS-B
Wed 07:38:14 PM 40.9502 -74.3474 26° Northeast 348 400 19,000  Level FlightAware ADS-B
Wed 07:38:18 PM 40.9555 -74.3425 35° Northeast 351 404 19,000  Level FlightAware ADS-B
Wed 07:38:20 PM 40.9578 -74.3401 38° Northeast 352 405 19,000  Level FlightAware ADS-B
Wed 07:38:23 PM 40.9615 -74.3356 43° Northeast 355 409 19,000  Level FlightAware ADS-B
Wed 07:38:36 PM 40.9742 -74.3132 53° Northeast 361 415 19,000  Level FlightAware ADS-B
Wed 07:38:47 PM 40.9809 -74.2882 70° East 365 420 19,000  Level FlightAware ADS-B
Wed 07:38:53 PM 40.9822 -74.2756 82° East 367 422 19,000  Level FlightAware ADS-B
Wed 07:38:55 PM 40.9823 -74.2722 88° East 368 423 19,000  Level FlightAware ADS-B
Wed 07:38:59 PM 40.9821 -74.2619 91° East 369 425 19,000  Level FlightAware ADS-B
Wed 07:39:04 PM 40.9809 -74.2507 98° East 369 425 19,000  Level FlightAware ADS-B
Wed 07:39:09 PM 40.9790 -74.2411 105° East 369 425 19,000  Level FlightAware ADS-B
Wed 07:39:12 PM 40.9769 -74.2333 110° East 368 423 19,000  Level FlightAware ADS-B
Wed 07:39:19 PM 40.9720 -74.2204 117° Southeast 366 421 19,000  Level FlightAware ADS-B
Wed 07:39:25 PM 40.9658 -74.2088 125° Southeast 365 420 19,000  Level FlightAware ADS-B
Wed 07:39:48 PM 40.9392 -74.1715 133° Southeast 366 421 19,000  Level FlightAware ADS-B
Wed 07:39:57 PM 40.9314 -74.1556 123° Southeast 366 421 19,000  Level FlightAware ADS-B
Wed 07:40:19 PM 40.9106 -74.1146 124° Southeast 364 419 19,000  Level FlightAware ADS-B
Wed 07:40:27 PM 40.9028 -74.0995 124° Southeast 361 415 19,000 -387 Level FlightAware ADS-B
Wed 07:40:50 PM 40.8811 -74.0576 124° Southeast 359 413 18,800 -750 Descending FlightAware ADS-B
Wed 07:40:59 PM 40.8733 -74.0424 124° Southeast 359 413 18,600 -1,688 Descending FlightAware ADS-B
Wed 07:41:22 PM 40.8516 -74.0002 124° Southeast 360 414 17,900 -1,742 Descending FlightAware ADS-B
Wed 07:41:30 PM 40.8443 -73.9861 124° Southeast 360 414 17,700 -1,600 Descending FlightAware ADS-B
Wed 07:41:52 PM 40.8234 -73.9455 124° Southeast 359 413 17,100 -1,636 Descending FlightAware ADS-B
Wed 07:42:25 PM 40.7931 -73.8864 124° Southeast 352 405 16,200 -1,600 Descending FlightAware ADS-B
Wed 07:42:52 PM 40.7706 -73.8373 121° Southeast 349 402 15,500 -1,636 Descending FlightAware ADS-B
Wed 07:42:58 PM 40.7665 -73.8254 114° Southeast 359 413 15,300 -1,800 Descending FlightAware ADS-B
Wed 07:43:22 PM 40.7513 -73.7786 113° Southeast 344 396 14,600 -1,667 Descending FlightAware ADS-B
Wed 07:44:10 PM 40.7227 -73.6884 113° Southeast 341 392 13,300 -882 Descending FlightAware ADS-B
Wed 07:45:04 PM 40.6856 -73.5914 117° Southeast 321 369 13,100 -140 Descending FlightAware ADS-B
Wed 07:45:36 PM 40.6544 -73.5451 132° Southeast 318 366 13,100  Level FlightAware ADS-B
Wed 07:46:05 PM 40.6249 -73.5021 132° Southeast 321 369 13,100 -800 Level FlightAware ADS-B
Wed 07:46:36 PM 40.5950 -73.4583 132° Southeast 313 360 12,300 -1,636 Descending FlightAware ADS-B
Wed 07:47:11 PM 40.5627 -73.4083 130° Southeast 311 358 11,300 -1,692 Descending FlightAware ADS-B
Wed 07:47:15 PM 40.5600 -73.4015 118° Southeast 315 362 11,200 -2,000 Descending FlightAware ADS-B
Wed 07:47:20 PM 40.5573 -73.3926 112° Southeast 317 365 11,000 -2,182 Descending FlightAware ADS-B
Wed 07:47:26 PM 40.5551 -73.3798 103° East 319 367 10,800 -1,714 Descending FlightAware ADS-B
Wed 07:47:34 PM 40.5539 -73.3658 96° East 319 367 10,600 -1,714 Descending FlightAware ADS-B
Wed 07:47:54 PM 40.5524 -73.3271 93° East 319 367 10,000 -1,846 Descending FlightAware ADS-B
Wed 07:48:00 PM 40.5536 -73.3160 82° East 319 367 9,800 -2,400 Descending FlightAware ADS-B
Wed 07:48:04 PM 40.5554 -73.3073 75° East 317 365 9,600 -2,143 Descending FlightAware ADS-B
Wed 07:48:14 PM 40.5606 -73.2890 69° East 313 360 9,300 -1,929 Descending FlightAware ADS-B
Wed 07:48:32 PM 40.5698 -73.2592 68° East 311 358 8,700 -1,959 Descending FlightAware ADS-B
Wed 07:49:03 PM 40.5882 -73.2061 65° Northeast 306 352 7,700 -2,000 Descending FlightAware ADS-B
Wed 07:49:35 PM 40.6250 -73.1820 26° Northeast 280 322 6,600 -1,932 Descending FlightAware ADS-B
Wed 07:50:02 PM 40.6550 -73.2000 336° Northwest 260 299 5,800 -1,953 Descending FlightAware ADS-B
Wed 07:50:18 PM 40.6670 -73.2190 310° West 258 297 5,200 -2,000 Descending FlightAware ADS-B
Wed 07:50:47 PM 40.6880 -73.2550 308° West 264 304 4,300 -1,333 Descending FlightAware ADS-B
Wed 07:51:12 PM 40.7070 -73.2870 308° West 257 296 4,000 -873 Descending FlightAware ADS-B
Wed 07:51:42 PM 40.7230 -73.3270 298° West 253 291 3,500 -1,227 Descending FlightAware ADS-B
Wed 07:51:56 PM 40.7320 -73.3470 301° West 254 292 3,100 -571 Descending FlightAware ADS-B
Wed 07:52:24 PM 40.7460 -73.3850 296° West 258 297 3,100  Level FlightAware ADS-B
Wed 07:52:50 PM 40.7600 -73.4210 297° West 240 276 3,100  Level FlightAware ADS-B
Wed 07:53:19 PM 40.7740 -73.4570 297° West 216 249 3,100  Level FlightAware ADS-B
Wed 07:53:45 PM 40.7860 -73.4880 297° West 216 249 3,100  Level FlightAware ADS-B
Wed 07:54:03 PM 40.7930 -73.5090 294° West 205 236 3,100 -255 Level FlightAware ADS-B
Wed 07:54:32 PM 40.8050 -73.5380 299° West 185 213 2,900 -632 Descending FlightAware ADS-B
Wed 07:55:00 PM 40.8130 -73.5670 290° West 182 209 2,500 -808 Descending FlightAware ADS-B
Wed 07:55:24 PM 40.8060 -73.5910 249° West 181 208 2,200 -444 Descending FlightAware ADS-B
Wed 07:55:54 PM 40.7910 -73.6180 234° Southwest 185 213 2,100 -105 Descending FlightAware ADS-B
Wed 07:56:21 PM 40.7770 -73.6430 234° Southwest 181 208 2,100  Level FlightAware ADS-B
Wed 07:56:51 PM 40.7590 -73.6660 224° Southwest 181 208 2,100  Level FlightAware ADS-B
Wed 07:57:20 PM 40.7390 -73.6820 211° Southwest 182 209 2,100 -340 Level FlightAware ADS-B
Wed 07:57:44 PM 40.7210 -73.6960 211° Southwest 173 199 1,800 -808 Descending FlightAware ADS-B
Wed 07:58:12 PM 40.7030 -73.7100 211° Southwest 148 170 1,400 -750 Descending FlightAware ADS-B
Wed 07:58:40 PM 40.6880 -73.7220 211° Southwest 126 145 1,100 -600 Descending FlightAware ADS-B
Wed 07:59:12 PM 40.6720 -73.7340 210° Southwest 129 148 800 -621 Descending FlightAware ADS-B
Wed 07:59:38 PM 40.6580 -73.7450 211° Southwest 132 152 500 -789 Descending FlightAware ADS-B
Wed 07:59:50 PM 40.6520 -73.7490 207° Southwest 131 151 300 -1,000 Descending FlightAware ADS-B
Wed 08:00:22 PM 40.6360 -73.7620 212° Southwest 92 106 -563 Descending FlightAware ADS-B
Wed 08:00:46 PM 40.6310 -73.7660 211° Southwest 33 38  Level FlightAware ADS-B
Wed 08:01:02 PM 40.6300 -73.7680 237° Southwest 22 25  Level FlightAware ADS-B
Wed 08:01:12 PM 40.6290 -73.7690 217° Southwest 16 18  Level FlightAware ADS-B
Wed 08:01:43 PM 40.6310 -73.7700 339° North 33 38  Level FlightAware ADS-B

Login

Don't have an account? Register now (free) for customized features, flight alerts, and more!